Time;durP1;ratioP1;P1;durP2;ratioP2;P2;SDS_P1;SDS_P2;PMS_P1;PMS_P2;Temp;Humidity;BMP_temperature;BMP_pressure;BME280_temperature;BME280_humidity;BME280_pressure;Samples;Min_cycle;Max_cycle;Signal;HPM_P1;HPM_P2
2021/08/17 00:01:28;;;;;;;18.27;4.82;;;14.30;99.90;;;;;;5073953;28;20040;-70
2021/08/17 00:03:53;;;;;;;17.77;4.88;;;14.20;99.90;;;;;;5073999;28;20090;-70
2021/08/17 00:06:19;;;;;;;23.40;4.72;;;14.20;99.90;;;;;;5074255;28;20041;-69
2021/08/17 00:08:45;;;;;;;20.70;5.68;;;14.20;99.90;;;;;;5073763;28;20059;-70
2021/08/17 00:11:11;;;;;;;18.92;4.90;;;14.20;99.90;;;;;;5073918;28;20382;-69
2021/08/17 00:13:37;;;;;;;19.73;5.80;;;14.20;99.90;;;;;;5073475;28;20044;-70
2021/08/17 00:16:02;;;;;;;18.92;4.78;;;14.20;99.90;;;;;;5073513;28;20048;-70
2021/08/17 00:18:28;;;;;;;16.40;4.65;;;14.20;99.90;;;;;;5073407;28;20068;-70
2021/08/17 00:20:54;;;;;;;16.13;4.20;;;14.20;99.90;;;;;;5072388;28;20036;-70
2021/08/17 00:23:20;;;;;;;14.32;4.10;;;14.30;99.90;;;;;;5073927;28;20101;-69
2021/08/17 00:25:45;;;;;;;19.85;5.53;;;14.20;99.90;;;;;;5073411;28;20086;-70
2021/08/17 00:28:11;;;;;;;17.60;4.05;;;14.20;99.90;;;;;;5073374;28;20040;-70
2021/08/17 00:30:40;;;;;;;15.40;4.05;;;14.30;99.90;;;;;;5073035;28;20033;-69
2021/08/17 00:33:06;;;;;;;21.33;4.75;;;14.30;99.90;;;;;;5073673;28;20119;-69
2021/08/17 00:35:31;;;;;;;22.55;5.88;;;14.40;99.90;;;;;;5073777;28;20119;-70
2021/08/17 00:37:59;;;;;;;22.88;5.15;;;14.40;99.90;;;;;;5073441;28;20063;-69
2021/08/17 00:40:24;;;;;;;13.18;4.90;;;14.40;99.90;;;;;;5073591;28;20491;-69
2021/08/17 00:42:50;;;;;;;17.73;4.38;;;14.40;99.90;;;;;;5074051;28;20041;-69
2021/08/17 00:45:21;;;;;;;23.60;4.32;;;14.40;99.90;;;;;;5071738;28;20052;-69
2021/08/17 00:47:51;;;;;;;16.83;3.83;;;14.40;99.90;;;;;;5073558;28;20542;-69
2021/08/17 00:50:19;;;;;;;14.77;4.05;;;14.40;99.90;;;;;;5073068;28;20040;-69
2021/08/17 00:52:45;;;;;;;13.82;4.47;;;14.40;99.90;;;;;;5073578;28;20401;-70
2021/08/17 00:55:12;;;;;;;16.48;3.92;;;14.30;99.90;;;;;;5072029;28;20036;-69
2021/08/17 00:57:41;;;;;;;17.38;3.72;;;14.40;99.90;;;;;;5073157;28;20091;-70
2021/08/17 01:00:08;;;;;;;13.85;4.32;;;14.40;99.90;;;;;;5072256;28;20041;-69
2021/08/17 01:02:34;;;;;;;16.73;3.85;;;14.40;99.90;;;;;;5072416;28;20072;-70
2021/08/17 01:05:02;;;;;;;19.67;3.60;;;14.40;99.90;;;;;;5073145;28;20067;-69
2021/08/17 01:07:29;;;;;;;18.88;5.05;;;14.40;99.90;;;;;;5073209;28;20044;-69
2021/08/17 01:09:55;;;;;;;13.95;4.43;;;14.30;99.90;;;;;;5072785;28;20032;-69
2021/08/17 01:12:20;;;;;;;16.85;4.78;;;14.40;99.90;;;;;;5072937;28;20036;-70
2021/08/17 01:14:46;;;;;;;11.80;3.97;;;14.30;99.90;;;;;;5072916;28;20097;-70
2021/08/17 01:17:12;;;;;;;12.73;3.33;;;14.40;99.90;;;;;;5072943;28;20044;-70
2021/08/17 01:19:38;;;;;;;17.88;4.22;;;14.40;99.90;;;;;;5072588;28;20037;-69
2021/08/17 01:22:04;;;;;;;10.43;3.00;;;14.40;99.90;;;;;;5072864;28;20041;-69
2021/08/17 01:24:30;;;;;;;11.90;3.28;;;14.40;99.90;;;;;;5072881;28;20098;-70
2021/08/17 01:26:56;;;;;;;33.88;4.43;;;14.40;99.90;;;;;;5073238;28;20068;-69
2021/08/17 01:29:23;;;;;;;14.38;4.10;;;14.40;99.90;;;;;;5072510;28;20044;-69
2021/08/17 01:31:50;;;;;;;14.18;2.97;;;14.40;99.90;;;;;;5073185;28;20047;-69
2021/08/17 01:34:15;;;;;;;12.75;3.58;;;14.40;99.90;;;;;;5072926;28;20040;-69
2021/08/17 01:36:41;;;;;;;12.50;4.05;;;14.40;99.90;;;;;;5072808;28;20040;-69
2021/08/17 01:39:07;;;;;;;10.98;3.65;;;14.40;99.90;;;;;;5072584;28;20520;-69
2021/08/17 01:41:33;;;;;;;11.40;2.83;;;14.30;99.90;;;;;;5072679;28;20042;-69
2021/08/17 01:44:02;;;;;;;13.63;3.78;;;14.30;99.90;;;;;;5072813;28;20037;-70
2021/08/17 01:46:28;;;;;;;14.82;3.47;;;14.20;99.90;;;;;;5072964;28;20044;-70
2021/08/17 01:48:54;;;;;;;12.48;3.95;;;14.20;99.90;;;;;;5072621;28;20378;-70
2021/08/17 01:51:20;;;;;;;14.20;3.83;;;14.10;99.90;;;;;;5072526;28;20090;-69
2021/08/17 01:53:52;;;;;;;13.88;2.55;;;14.00;99.90;;;;;;5072706;28;20043;-70
2021/08/17 01:56:18;;;;;;;14.60;3.33;;;14.00;99.90;;;;;;5072463;28;20443;-69
2021/08/17 01:58:43;;;;;;;20.40;4.45;;;14.00;99.90;;;;;;5075980;28;20040;-69
2021/08/17 02:01:11;;;;;;;15.70;3.22;;;14.00;99.90;;;;;;5076123;28;20040;-69
2021/08/17 02:03:38;;;;;;;19.30;3.78;;;13.90;99.90;;;;;;5076389;28;20475;-70
2021/08/17 02:06:04;;;;;;;11.48;3.15;;;13.90;99.90;;;;;;5076022;28;20115;-70
2021/08/17 02:08:30;;;;;;;16.35;3.40;;;13.90;99.90;;;;;;5076051;28;20074;-70
2021/08/17 02:10:56;;;;;;;11.35;3.22;;;13.80;99.90;;;;;;5076154;28;20056;-69
2021/08/17 02:13:23;;;;;;;10.57;3.10;;;13.90;99.90;;;;;;5075861;28;20036;-70
2021/08/17 02:15:49;;;;;;;16.90;4.15;;;13.90;99.90;;;;;;5076175;28;20044;-70
2021/08/17 02:18:15;;;;;;;9.32;3.00;;;14.00;99.90;;;;;;5075001;28;20476;-70
2021/08/17 02:20:41;;;;;;;15.35;3.25;;;14.00;99.90;;;;;;5075708;28;20093;-70
2021/08/17 02:23:07;;;;;;;12.30;3.13;;;14.00;99.90;;;;;;5075844;28;20392;-70
2021/08/17 02:25:34;;;;;;;13.10;3.40;;;14.00;99.90;;;;;;5075920;28;20131;-70
2021/08/17 02:27:59;;;;;;;10.65;3.17;;;14.00;99.90;;;;;;5075933;28;20044;-70
2021/08/17 02:30:26;;;;;;;14.95;3.30;;;14.00;99.90;;;;;;5075745;28;20036;-68
2021/08/17 02:32:52;;;;;;;9.88;3.22;;;14.00;99.90;;;;;;5075713;28;20511;-68
2021/08/17 02:35:18;;;;;;;12.65;3.63;;;13.90;99.90;;;;;;5075651;28;20044;-68
2021/08/17 02:37:44;;;;;;;12.60;3.20;;;14.00;99.90;;;;;;5075627;28;20052;-68
2021/08/17 02:40:10;;;;;;;13.82;3.40;;;14.00;99.90;;;;;;5075505;28;20381;-68
2021/08/17 02:42:37;;;;;;;12.98;3.20;;;14.00;99.90;;;;;;5075327;28;20079;-68
2021/08/17 02:45:03;;;;;;;10.30;3.58;;;13.90;99.90;;;;;;5075846;28;20038;-68
2021/08/17 02:47:30;;;;;;;9.77;2.95;;;13.90;99.90;;;;;;5075518;28;20059;-68
2021/08/17 02:49:55;;;;;;;9.15;2.80;;;13.90;99.90;;;;;;5075067;28;20036;-68
2021/08/17 02:52:21;;;;;;;13.30;3.47;;;13.90;99.90;;;;;;5075281;28;20029;-68
2021/08/17 02:54:50;;;;;;;10.02;3.10;;;13.90;99.90;;;;;;5075262;28;20032;-68
2021/08/17 02:57:16;;;;;;;13.05;3.47;;;13.80;99.90;;;;;;5075317;28;20473;-68
2021/08/17 02:59:42;;;;;;;15.60;4.68;;;13.80;99.90;;;;;;5074900;28;20127;-68
2021/08/17 03:02:07;;;;;;;15.32;3.08;;;13.80;99.90;;;;;;5075103;28;20037;-68
2021/08/17 03:04:33;;;;;;;11.95;3.00;;;13.80;99.90;;;;;;5075601;28;20115;-68
2021/08/17 03:06:59;;;;;;;12.30;3.20;;;13.80;99.90;;;;;;5075266;28;20048;-68
2021/08/17 03:09:24;;;;;;;13.40;3.20;;;13.80;99.90;;;;;;5074264;28;20088;-68
2021/08/17 03:11:50;;;;;;;12.73;3.85;;;13.90;99.90;;;;;;5075220;28;20044;-68
2021/08/17 03:14:16;;;;;;;16.58;3.75;;;13.80;99.90;;;;;;5074610;28;20040;-68
2021/08/17 03:16:41;;;;;;;9.75;3.33;;;13.80;99.90;;;;;;5075144;28;20041;-68
2021/08/17 03:19:08;;;;;;;17.77;3.83;;;13.80;99.90;;;;;;5073160;28;20162;-67
2021/08/17 03:21:34;;;;;;;10.82;3.13;;;13.90;99.90;;;;;;5074573;28;20044;-68
2021/08/17 03:24:00;;;;;;;17.48;3.60;;;13.90;99.90;;;;;;5074603;28;20119;-68
2021/08/17 03:26:26;;;;;;;9.82;3.40;;;13.80;99.90;;;;;;5074576;28;20036;-68
2021/08/17 03:28:52;;;;;;;10.18;2.80;;;13.80;99.90;;;;;;5074548;28;20446;-68
2021/08/17 03:31:18;;;;;;;13.95;3.15;;;13.90;99.90;;;;;;5074645;28;20045;-68
2021/08/17 03:33:45;;;;;;;11.65;2.45;;;13.90;99.90;;;;;;5073191;28;20465;-68
2021/08/17 03:36:11;;;;;;;8.98;2.90;;;13.90;99.90;;;;;;5072986;28;20506;-68
2021/08/17 03:38:37;;;;;;;13.10;3.80;;;13.90;99.90;;;;;;5073930;28;20386;-68
2021/08/17 03:41:03;;;;;;;9.77;3.05;;;13.90;99.90;;;;;;5074288;28;20090;-68
2021/08/17 03:43:30;;;;;;;18.35;3.70;;;13.90;99.90;;;;;;5074241;28;20094;-68
2021/08/17 03:45:56;;;;;;;15.70;2.83;;;13.90;99.90;;;;;;5074100;28;20106;-68
2021/08/17 03:48:22;;;;;;;12.20;2.90;;;13.90;99.90;;;;;;5073973;28;20040;-69
2021/08/17 03:50:48;;;;;;;12.77;2.65;;;13.90;99.90;;;;;;5073913;28;20120;-68
2021/08/17 03:53:14;;;;;;;13.35;2.60;;;13.80;99.90;;;;;;5074259;28;20048;-68
2021/08/17 03:55:39;;;;;;;11.13;3.28;;;13.80;99.90;;;;;;5073981;28;20115;-68
2021/08/17 03:58:06;;;;;;;12.02;2.67;;;13.80;99.90;;;;;;5074514;28;20090;-68
2021/08/17 04:00:33;;;;;;;9.65;3.10;;;13.80;99.90;;;;;;5074017;28;20036;-68
2021/08/17 04:02:59;;;;;;;13.25;2.90;;;13.80;99.90;;;;;;5074041;28;20040;-68
2021/08/17 04:05:26;;;;;;;13.27;2.50;;;13.80;99.90;;;;;;5074089;28;20040;-68
2021/08/17 04:07:53;;;;;;;9.95;2.28;;;13.80;99.90;;;;;;5074085;28;20040;-68
2021/08/17 04:10:20;;;;;;;13.35;2.65;;;13.70;99.90;;;;;;5073900;28;20032;-68
2021/08/17 04:12:45;;;;;;;7.40;2.63;;;13.80;99.90;;;;;;5073489;28;20503;-69
2021/08/17 04:15:12;;;;;;;9.45;2.58;;;13.80;99.90;;;;;;5073944;28;20032;-68
2021/08/17 04:17:38;;;;;;;14.02;2.72;;;13.70;99.90;;;;;;5073875;28;20048;-68
2021/08/17 04:20:05;;;;;;;15.63;4.03;;;13.70;99.90;;;;;;5073167;28;20060;-68
2021/08/17 04:22:31;;;;;;;8.50;2.50;;;13.70;99.90;;;;;;5073588;28;20045;-68
2021/08/17 04:24:57;;;;;;;13.10;2.30;;;13.70;99.90;;;;;;5073523;28;20046;-68
2021/08/17 04:27:23;;;;;;;11.25;2.65;;;13.70;99.90;;;;;;5074065;28;20045;-68
2021/08/17 04:29:49;;;;;;;11.45;2.35;;;13.70;99.90;;;;;;5073279;28;20044;-68
2021/08/17 04:32:16;;;;;;;8.98;2.35;;;13.70;99.90;;;;;;5073533;28;20119;-68
2021/08/17 04:34:41;;;;;;;9.40;2.63;;;13.60;99.90;;;;;;5073780;28;20068;-68
2021/08/17 04:37:07;;;;;;;12.73;2.83;;;13.60;99.90;;;;;;5073466;28;20133;-68
2021/08/17 04:39:34;;;;;;;9.48;2.00;;;13.70;99.90;;;;;;5073039;28;20459;-68
2021/08/17 04:42:00;;;;;;;12.77;3.17;;;13.70;99.90;;;;;;5073654;28;20119;-68
2021/08/17 04:44:25;;;;;;;7.72;2.55;;;13.70;99.90;;;;;;5073560;28;20065;-68
2021/08/17 04:46:51;;;;;;;11.18;2.67;;;13.80;99.90;;;;;;5072102;28;20119;-68
2021/08/17 04:49:17;;;;;;;12.70;2.90;;;13.80;99.90;;;;;;5072893;28;20484;-68
2021/08/17 04:51:43;;;;;;;13.07;3.03;;;13.80;99.90;;;;;;5073078;28;20048;-68
2021/08/17 04:54:09;;;;;;;11.63;2.78;;;13.90;99.90;;;;;;5073714;28;20032;-68
2021/08/17 04:56:34;;;;;;;14.43;2.38;;;14.00;99.90;;;;;;5073258;28;20043;-68
2021/08/17 04:59:00;;;;;;;10.73;3.05;;;14.00;99.90;;;;;;5072916;28;20040;-68
2021/08/17 05:01:26;;;;;;;6.70;2.60;;;14.10;99.90;;;;;;5073061;28;20443;-68
2021/08/17 05:03:52;;;;;;;16.10;2.92;;;14.10;99.90;;;;;;5073469;28;20041;-68
2021/08/17 05:06:17;;;;;;;11.98;3.00;;;14.10;99.90;;;;;;5073154;28;20045;-68
2021/08/17 05:08:43;;;;;;;10.07;2.70;;;14.20;99.90;;;;;;5072709;28;20048;-68
2021/08/17 05:11:12;;;;;;;11.35;2.78;;;14.30;99.90;;;;;;5072969;28;20116;-68
2021/08/17 05:13:37;;;;;;;10.70;2.60;;;14.40;99.90;;;;;;5072851;28;20094;-68
2021/08/17 05:16:03;;;;;;;13.07;3.05;;;14.50;99.90;;;;;;5073015;28;20071;-68
2021/08/17 05:18:32;;;;;;;12.82;3.17;;;14.60;99.90;;;;;;5072805;28;20177;-68
2021/08/17 05:21:02;;;;;;;11.82;2.78;;;14.60;99.90;;;;;;5072884;28;20060;-68
2021/08/17 05:23:29;;;;;;;13.82;2.97;;;14.60;99.90;;;;;;5072957;28;20059;-68
2021/08/17 05:25:55;;;;;;;12.88;3.45;;;14.60;99.90;;;;;;5072929;28;20131;-68
2021/08/17 05:28:22;;;;;;;13.95;3.22;;;14.70;99.90;;;;;;5072754;28;20143;-68
2021/08/17 05:30:48;;;;;;;16.33;3.15;;;14.70;99.90;;;;;;5072535;28;20036;-67
2021/08/17 05:33:14;;;;;;;9.55;2.90;;;14.70;99.90;;;;;;5075712;28;20037;-68
2021/08/17 05:35:42;;;;;;;14.30;3.22;;;14.70;99.90;;;;;;5076864;28;20094;-68
2021/08/17 05:38:08;;;;;;;11.57;3.25;;;14.70;99.90;;;;;;5076737;28;20123;-68
2021/08/17 05:40:34;;;;;;;9.55;3.15;;;14.60;99.90;;;;;;5076203;28;20048;-68
2021/08/17 05:43:00;;;;;;;15.68;3.35;;;14.60;99.90;;;;;;5076781;28;20098;-68
2021/08/17 05:45:25;;;;;;;10.50;3.40;;;14.60;99.90;;;;;;5075419;28;20112;-68
2021/08/17 05:47:51;;;;;;;15.40;3.65;;;14.70;99.90;;;;;;5076716;28;20067;-68
2021/08/17 05:50:19;;;;;;;16.45;4.43;;;14.80;99.90;;;;;;5075927;28;20040;-68
2021/08/17 05:52:45;;;;;;;11.45;3.28;;;14.80;99.90;;;;;;5076781;28;20056;-68
2021/08/17 05:55:11;;;;;;;9.50;4.13;;;14.80;99.90;;;;;;5076869;28;20176;-68
2021/08/17 05:57:37;;;;;;;10.25;3.95;;;14.90;99.90;;;;;;5076122;28;20040;-68
2021/08/17 06:00:10;;;;;;;13.48;4.47;;;14.90;99.90;;;;;;5075913;28;20049;-68
2021/08/17 06:02:35;;;;;;;13.68;4.32;;;15.00;99.90;;;;;;5075386;28;20045;-68
2021/08/17 06:05:01;;;;;;;10.80;4.45;;;15.00;99.90;;;;;;5076231;28;20086;-68
2021/08/17 06:07:27;;;;;;;14.20;4.78;;;14.90;99.90;;;;;;5076470;28;20041;-68
2021/08/17 06:09:52;;;;;;;14.20;4.55;;;15.00;99.90;;;;;;5074597;28;20056;-68
2021/08/17 06:12:18;;;;;;;17.42;4.97;;;15.00;99.90;;;;;;5075930;28;20036;-68
2021/08/17 06:14:44;;;;;;;21.17;5.82;;;15.00;99.90;;;;;;5076090;28;20041;-68
2021/08/17 06:17:09;;;;;;;15.85;4.90;;;15.00;99.90;;;;;;5076002;28;20068;-68
2021/08/17 06:19:36;;;;;;;15.68;5.15;;;14.90;99.90;;;;;;5075801;28;20040;-68
2021/08/17 06:22:02;;;;;;;17.25;6.97;;;14.90;99.90;;;;;;5075882;28;20040;-68
2021/08/17 06:24:27;;;;;;;15.25;4.35;;;14.90;99.90;;;;;;5075743;28;20033;-68
2021/08/17 06:26:53;;;;;;;12.50;4.60;;;14.90;99.90;;;;;;5075653;28;20047;-68
2021/08/17 06:29:18;;;;;;;13.90;4.90;;;15.00;99.90;;;;;;5075600;28;20080;-68
2021/08/17 06:31:44;;;;;;;15.57;6.15;;;15.10;99.90;;;;;;5075593;28;20040;-68
2021/08/17 06:34:10;;;;;;;16.83;5.47;;;15.10;99.90;;;;;;5075695;28;20475;-68
2021/08/17 06:36:36;;;;;;;16.40;5.70;;;15.20;99.90;;;;;;5075503;28;20042;-68
2021/08/17 06:39:04;;;;;;;13.60;4.75;;;15.10;99.90;;;;;;5075640;28;20400;-68
2021/08/17 06:41:29;;;;;;;14.68;4.78;;;15.10;99.90;;;;;;5075431;28;20048;-68
2021/08/17 06:43:55;;;;;;;17.70;5.38;;;15.10;99.90;;;;;;5074300;28;20059;-68
2021/08/17 06:46:21;;;;;;;12.32;4.80;;;15.10;99.90;;;;;;5075668;28;20401;-68
2021/08/17 06:48:47;;;;;;;19.35;5.20;;;15.10;99.90;;;;;;5075343;28;20123;-68
2021/08/17 06:51:13;;;;;;;11.32;3.80;;;15.10;99.90;;;;;;5075312;28;20477;-68
2021/08/17 06:53:39;;;;;;;13.98;4.90;;;15.10;99.90;;;;;;5075436;28;20043;-68
2021/08/17 06:56:05;;;;;;;17.63;4.93;;;15.20;99.90;;;;;;5075250;28;20041;-68
2021/08/17 06:58:31;;;;;;;12.77;4.90;;;15.20;99.90;;;;;;5074964;28;20044;-68
2021/08/17 07:00:57;;;;;;;14.75;6.05;;;15.20;99.90;;;;;;5075134;28;20419;-68
2021/08/17 07:03:23;;;;;;;15.48;5.13;;;15.30;99.90;;;;;;5075438;28;20032;-68
2021/08/17 07:05:49;;;;;;;11.80;4.80;;;15.40;99.90;;;;;;5075074;28;20047;-68
2021/08/17 07:08:15;;;;;;;13.43;4.88;;;15.40;99.90;;;;;;5074908;28;20116;-68
2021/08/17 07:10:43;;;;;;;14.23;5.15;;;15.50;99.90;;;;;;5074653;28;20077;-68
2021/08/17 07:13:09;;;;;;;11.82;4.47;;;15.50;99.90;;;;;;5074761;28;20075;-68
2021/08/17 07:15:35;;;;;;;16.40;4.63;;;15.60;99.90;;;;;;5075432;28;20044;-68
2021/08/17 07:18:00;;;;;;;10.68;5.05;;;15.70;99.90;;;;;;5074661;28;20044;-68
2021/08/17 07:20:26;;;;;;;14.18;5.63;;;15.70;99.90;;;;;;5074529;28;20063;-68
2021/08/17 07:22:52;;;;;;;14.45;5.13;;;15.80;99.90;;;;;;5074663;28;20040;-68
2021/08/17 07:25:17;;;;;;;10.43;4.20;;;15.80;99.90;;;;;;5074502;28;20032;-68
2021/08/17 07:27:43;;;;;;;11.13;4.43;;;15.80;99.90;;;;;;5074541;28;20072;-68
2021/08/17 07:30:14;;;;;;;13.75;3.78;;;15.90;99.90;;;;;;5074199;28;20413;-68
2021/08/17 07:32:44;;;;;;;6.80;3.28;;;15.90;99.90;;;;;;5074636;28;20067;-68
2021/08/17 07:35:12;;;;;;;9.82;4.53;;;16.20;99.90;;;;;;5074544;28;20473;-68
2021/08/17 07:37:39;;;;;;;8.25;3.88;;;16.40;99.90;;;;;;5074506;28;20127;-67
2021/08/17 07:40:06;;;;;;;9.00;3.50;;;16.40;99.90;;;;;;5074045;28;20041;-68
2021/08/17 07:42:32;;;;;;;6.97;3.35;;;16.40;99.90;;;;;;5073869;28;20480;-68
2021/08/17 07:44:58;;;;;;;10.55;3.47;;;16.40;99.90;;;;;;5080276;28;20369;-68
2021/08/17 07:47:24;;;;;;;7.40;3.65;;;16.40;99.90;;;;;;5074111;28;20047;-67
2021/08/17 07:49:50;;;;;;;13.98;4.22;;;16.50;99.90;;;;;;5073583;28;20052;-68
2021/08/17 07:52:16;;;;;;;8.55;3.95;;;16.50;99.90;;;;;;5074284;28;20040;-68
2021/08/17 07:54:42;;;;;;;11.70;4.20;;;16.50;99.90;;;;;;5073975;28;20040;-68
2021/08/17 07:57:08;;;;;;;13.18;4.43;;;16.50;99.90;;;;;;5092416;28;20545;-68
2021/08/17 07:59:33;;;;;;;13.27;4.53;;;16.50;99.90;;;;;;5093921;28;20040;-68
2021/08/17 08:01:59;;;;;;;12.30;4.47;;;16.60;99.90;;;;;;5094229;28;20439;-68
2021/08/17 08:04:24;;;;;;;10.10;4.57;;;16.60;99.90;;;;;;5092920;28;20100;-68
2021/08/17 08:06:50;;;;;;;8.60;3.38;;;16.60;99.90;;;;;;5094237;28;20097;-68
2021/08/17 08:09:16;;;;;;;15.13;4.95;;;16.70;99.90;;;;;;5093968;28;20397;-68
2021/08/17 08:11:41;;;;;;;10.02;3.95;;;16.70;99.90;;;;;;5094205;28;20086;-68
2021/08/17 08:14:07;;;;;;;8.50;3.95;;;16.70;99.90;;;;;;5093818;28;20044;-68
2021/08/17 08:16:33;;;;;;;12.82;4.10;;;16.80;99.90;;;;;;5093885;28;20047;-68
2021/08/17 08:18:59;;;;;;;9.38;4.07;;;16.90;99.90;;;;;;5093947;28;20484;-68
2021/08/17 08:21:24;;;;;;;12.25;4.72;;;16.90;99.90;;;;;;5093865;28;20464;-68
2021/08/17 08:23:50;;;;;;;10.20;4.80;;;16.90;99.90;;;;;;5094269;28;20085;-68
2021/08/17 08:26:16;;;;;;;13.40;4.38;;;16.80;99.90;;;;;;5093642;28;20090;-68
2021/08/17 08:28:41;;;;;;;13.93;5.10;;;16.80;99.90;;;;;;5093507;28;20048;-68
2021/08/17 08:31:07;;;;;;;13.30;4.82;;;16.70;99.90;;;;;;5093897;28;20059;-68
2021/08/17 08:33:33;;;;;;;10.05;5.22;;;16.70;99.90;;;;;;5093937;28;20494;-69
2021/08/17 08:36:00;;;;;;;10.30;4.10;;;16.60;99.90;;;;;;5093695;28;20032;-68
2021/08/17 08:38:25;;;;;;;11.50;5.32;;;16.60;99.90;;;;;;5093442;28;20494;-68
2021/08/17 08:40:52;;;;;;;13.55;5.47;;;16.70;99.90;;;;;;5093310;28;20111;-67
2021/08/17 08:43:19;;;;;;;11.60;5.50;;;16.70;99.90;;;;;;5093538;28;20040;-68
2021/08/17 08:45:47;;;;;;;13.07;5.75;;;16.60;99.90;;;;;;5093422;28;20032;-68
2021/08/17 08:48:14;;;;;;;13.90;5.97;;;16.70;99.90;;;;;;5093378;28;20042;-68
2021/08/17 08:50:44;;;;;;;9.13;5.25;;;16.70;99.90;;;;;;5093035;28;20408;-68
2021/08/17 08:53:12;;;;;;;14.82;5.50;;;16.80;99.90;;;;;;5093869;28;20044;-68
2021/08/17 08:55:37;;;;;;;13.65;6.57;;;16.80;99.90;;;;;;5093805;28;20040;-68
2021/08/17 08:58:04;;;;;;;19.08;5.82;;;16.90;99.90;;;;;;5093324;28;20119;-68
2021/08/17 09:00:29;;;;;;;11.43;5.55;;;17.00;99.90;;;;;;5093211;28;20036;-68
2021/08/17 09:02:55;;;;;;;15.60;5.90;;;17.20;99.90;;;;;;5093344;28;20111;-67
2021/08/17 09:05:22;;;;;;;12.32;6.68;;;17.30;99.90;;;;;;5093448;28;20127;-68
2021/08/17 09:07:48;;;;;;;13.77;6.43;;;17.40;99.90;;;;;;5095896;28;20044;-68
2021/08/17 09:10:19;;;;;;;16.13;6.32;;;17.50;99.90;;;;;;5097266;28;20487;-68
2021/08/17 09:12:56;;;;;;;18.50;6.93;;;17.70;99.90;;;;;;5096040;28;20416;-68
2021/08/17 09:15:33;;;;;;;15.82;6.72;;;17.90;99.90;;;;;;5098039;28;20032;-68
2021/08/17 09:18:11;;;;;;;16.05;7.07;;;18.10;99.90;;;;;;5097548;28;20052;-68
2021/08/17 09:20:48;;;;;;;13.93;6.40;;;18.10;99.90;;;;;;5097414;28;20063;-68
2021/08/17 09:23:26;;;;;;;18.42;8.32;;;18.20;99.90;;;;;;5097379;28;20048;-68
2021/08/17 09:25:54;;;;;;;12.98;6.65;;;18.30;99.90;;;;;;5093070;28;20037;-68
2021/08/17 09:28:25;;;;;;;12.70;7.72;;;18.40;99.90;;;;;;5082720;28;20044;-68
2021/08/17 09:30:51;;;;;;;13.75;7.18;;;18.30;99.90;;;;;;5076494;28;20041;-68
2021/08/17 09:33:16;;;;;;;19.30;8.15;;;18.20;99.90;;;;;;5076793;28;20511;-69
2021/08/17 09:35:42;;;;;;;22.25;7.30;;;18.30;99.90;;;;;;5076901;28;20408;-68
2021/08/17 09:38:11;;;;;;;16.70;7.28;;;18.30;99.90;;;;;;5076951;28;20043;-68
2021/08/17 09:40:38;;;;;;;16.27;8.20;;;18.30;99.90;;;;;;5076425;28;20127;-68
2021/08/17 09:43:15;;;;;;;14.07;8.60;;;18.40;99.90;;;;;;5076793;28;20037;-68
2021/08/17 09:45:45;;;;;;;18.38;7.80;;;18.40;99.90;;;;;;5076627;28;20045;-68
2021/08/17 09:48:12;;;;;;;16.70;8.43;;;18.40;99.90;;;;;;5076822;28;20041;-68
2021/08/17 09:50:41;;;;;;;14.70;7.70;;;18.30;99.90;;;;;;5076175;28;20071;-68
2021/08/17 09:53:18;;;;;;;15.38;8.70;;;18.30;99.90;;;;;;5076663;28;20036;-68
2021/08/17 09:55:49;;;;;;;13.68;8.05;;;18.30;99.90;;;;;;5074791;28;20044;-67
2021/08/17 09:58:18;;;;;;;13.90;8.27;;;18.30;99.90;;;;;;5076570;28;20040;-68
2021/08/17 10:00:45;;;;;;;19.85;9.90;;;18.40;99.90;;;;;;5075929;28;20047;-68
2021/08/17 10:03:13;;;;;;;16.05;9.43;;;18.30;99.90;;;;;;5076128;28;20047;-68
2021/08/17 10:05:40;;;;;;;17.15;9.38;;;18.20;99.90;;;;;;5076127;28;20040;-68
2021/08/17 10:08:09;;;;;;;18.95;8.85;;;18.10;99.90;;;;;;5076121;28;20068;-68
2021/08/17 10:10:36;;;;;;;16.33;9.15;;;18.00;99.90;;;;;;5075756;28;20035;-68
2021/08/17 10:13:02;;;;;;;16.95;9.35;;;18.00;99.90;;;;;;5075946;28;20067;-68
2021/08/17 10:15:28;;;;;;;21.88;9.65;;;18.00;99.90;;;;;;5075988;28;20534;-68
2021/08/17 10:18:00;;;;;;;15.90;8.35;;;17.90;99.90;;;;;;5075593;28;20041;-68
2021/08/17 10:20:27;;;;;;;19.05;9.23;;;18.00;99.90;;;;;;5075227;28;20044;-68
2021/08/17 10:22:53;;;;;;;16.35;8.73;;;18.20;99.90;;;;;;5076196;28;20037;-68
2021/08/17 10:25:19;;;;;;;17.27;8.93;;;18.30;99.90;;;;;;5075622;28;20476;-68
2021/08/17 10:27:45;;;;;;;20.52;9.77;;;18.30;99.90;;;;;;5075736;28;20052;-68
2021/08/17 10:30:17;;;;;;;12.95;7.90;;;18.30;99.90;;;;;;5075532;28;20048;-68
2021/08/17 10:32:54;;;;;;;16.15;8.70;;;18.10;99.90;;;;;;5076516;28;20170;-68
2021/08/17 10:35:28;;;;;;;16.30;8.13;;;18.10;99.90;;;;;;5076090;28;20063;-68
2021/08/17 10:38:29;;;;;;;15.88;8.90;;;18.10;99.90;;;;;;5077700;28;20078;-68
2021/08/17 10:40:55;;;;;;;13.00;8.50;;;18.10;99.90;;;;;;5086308;28;20048;-68
2021/08/17 10:43:22;;;;;;;16.05;7.75;;;18.00;99.90;;;;;;5088837;28;20476;-68
2021/08/17 10:45:52;;;;;;;14.32;7.72;;;17.80;99.90;;;;;;5095624;28;20032;-68
2021/08/17 10:51:37;;;;;;;15.93;7.88;;;17.70;99.90;;;;;;5095775;28;20040;-68
2021/08/17 10:54:03;;;;;;;17.23;8.05;;;17.60;99.90;;;;;;5095460;28;20449;-68
2021/08/17 10:56:34;;;;;;;18.42;8.30;;;17.60;99.90;;;;;;5095533;28;20040;-69
2021/08/17 10:59:00;;;;;;;16.50;9.40;;;17.60;99.90;;;;;;5095211;28;20047;-68
2021/08/17 11:01:32;;;;;;;18.95;10.30;;;17.60;99.90;;;;;;5095226;28;20032;-68
2021/08/17 11:04:02;;;;;;;16.33;8.70;;;17.80;99.90;;;;;;5095411;28;20361;-68
2021/08/17 11:06:42;;;;;;;19.13;9.18;;;17.90;99.90;;;;;;5095521;28;20036;-68
2021/08/17 11:09:09;;;;;;;17.10;8.20;;;18.10;99.90;;;;;;5095254;28;20036;-68
2021/08/17 11:11:35;;;;;;;13.88;7.50;;;18.30;99.90;;;;;;5095017;28;20032;-68
2021/08/17 11:14:15;;;;;;;14.32;7.07;;;18.40;99.90;;;;;;5094994;28;20068;-68
2021/08/17 11:16:46;;;;;;;16.90;7.50;;;18.50;99.90;;;;;;5095206;28;20474;-68
2021/08/17 11:19:13;;;;;;;14.32;8.10;;;18.40;99.90;;;;;;5094658;28;20040;-68
2021/08/17 11:21:45;;;;;;;12.65;7.32;;;18.50;99.90;;;;;;5095589;28;20044;-68
2021/08/17 11:24:33;;;;;;;13.48;6.97;;;18.50;99.90;;;;;;5095469;28;20403;-68
2021/08/17 11:27:02;;;;;;;11.00;6.95;;;18.40;99.90;;;;;;5095009;28;20546;-69
2021/08/17 11:29:38;;;;;;;14.95;8.23;;;18.40;99.90;;;;;;5093899;28;20044;-68
2021/08/17 11:32:08;;;;;;;16.23;7.45;;;18.30;99.90;;;;;;5094824;28;20374;-68
2021/08/17 11:34:39;;;;;;;14.50;6.68;;;18.20;99.90;;;;;;5094612;28;20043;-68
2021/08/17 11:37:11;;;;;;;13.82;6.93;;;18.10;99.90;;;;;;5094334;28;20051;-69
2021/08/17 11:39:37;;;;;;;17.20;8.45;;;18.10;99.90;;;;;;5092877;28;20048;-68
2021/08/17 11:42:32;;;;;;;12.38;6.93;;;18.00;99.90;;;;;;5094555;28;20150;-68
2021/08/17 11:45:09;;;;;;;14.65;6.95;;;17.90;99.90;;;;;;5094370;28;20044;-68
2021/08/17 11:47:36;;;;;;;12.20;7.22;;;18.00;99.90;;;;;;5094637;28;20123;-70
2021/08/17 11:50:08;;;;;;;13.38;7.72;;;18.00;99.90;;;;;;5094058;28;20047;-71
2021/08/17 11:52:35;;;;;;;13.95;7.22;;;17.90;99.90;;;;;;5094728;28;20093;-70
2021/08/17 11:55:06;;;;;;;12.80;6.65;;;17.80;99.90;;;;;;5093162;28;20046;-70
2021/08/17 11:57:58;;;;;;;13.18;6.72;;;17.80;99.90;;;;;;5094155;28;20058;-70
2021/08/17 12:00:26;;;;;;;14.52;6.72;;;17.70;99.90;;;;;;5093416;28;20097;-70
2021/08/17 12:02:56;;;;;;;11.45;6.90;;;17.70;99.90;;;;;;5094494;28;20036;-70
2021/08/17 12:05:24;;;;;;;11.50;6.22;;;17.70;99.90;;;;;;5093708;28;20031;-71
2021/08/17 12:07:52;;;;;;;11.20;6.45;;;17.60;99.90;;;;;;5073779;28;20048;-70
2021/08/17 12:10:24;;;;;;;13.38;6.10;;;17.60;99.90;;;;;;5073416;28;20036;-70
2021/08/17 12:13:13;;;;;;;14.02;6.38;;;17.60;99.90;;;;;;5073660;28;20047;-70
2021/08/17 12:15:44;;;;;;;9.15;6.25;;;17.50;99.90;;;;;;5074370;28;20543;-70
2021/08/17 12:18:22;;;;;;;12.02;6.18;;;17.50;99.90;;;;;;5073691;28;20037;-70
2021/08/17 12:21:04;;;;;;;10.10;6.47;;;17.50;99.90;;;;;;5072939;28;20125;-70
2021/08/17 12:23:38;;;;;;;12.70;6.85;;;17.40;99.90;;;;;;5073531;28;20032;-67
2021/08/17 12:26:09;;;;;;;9.70;6.05;;;17.70;99.90;;;;;;5073629;28;20039;-66
2021/08/17 12:28:36;;;;;;;9.77;6.07;;;17.60;99.90;;;;;;5073234;28;20045;-67
2021/08/17 12:31:07;;;;;;;13.57;6.07;;;17.70;99.90;;;;;;5073577;28;20462;-67
2021/08/17 12:33:33;;;;;;;10.95;5.72;;;17.80;99.90;;;;;;5073575;28;20037;-67
2021/08/17 12:35:58;;;;;;;13.57;6.75;;;17.70;99.90;;;;;;5073046;28;20400;-67
2021/08/17 12:38:24;;;;;;;12.27;6.63;;;17.60;99.90;;;;;;5073361;28;20047;-67
2021/08/17 12:40:53;;;;;;;9.88;6.07;;;17.40;99.90;;;;;;5073395;28;20041;-67
2021/08/17 12:43:26;;;;;;;9.20;5.78;;;17.30;99.90;;;;;;5073819;28;20037;-67